createdAt,value
2018-07-08T00:00:56.430Z,87.62
2018-07-08T00:01:56.358Z,88.00
2018-07-08T00:02:56.274Z,88.09
2018-07-08T00:03:56.209Z,88.19
2018-07-08T00:04:56.132Z,88.57
2018-07-08T00:05:56.062Z,88.76
2018-07-08T00:06:55.981Z,89.05
2018-07-08T00:07:55.914Z,88.95
2018-07-08T00:08:55.834Z,89.05
2018-07-08T00:09:55.767Z,89.43
2018-07-08T00:10:55.687Z,88.95
2018-07-08T00:11:55.616Z,89.34
2018-07-08T00:12:55.546Z,88.86
2018-07-08T00:13:55.470Z,89.05
2018-07-08T00:14:55.384Z,88.76
2018-07-08T00:15:55.320Z,88.90
2018-07-08T00:16:55.238Z,88.67
2018-07-08T00:17:55.171Z,88.76
2018-07-08T00:18:55.088Z,88.67
2018-07-08T00:19:55.021Z,88.38
2018-07-08T00:20:54.941Z,88.57
2018-07-08T00:21:54.874Z,88.19
2018-07-08T00:22:54.791Z,88.09
2018-07-08T00:23:54.725Z,87.33
2018-07-08T00:24:54.644Z,87.81
2018-07-08T00:25:54.577Z,87.33
2018-07-08T00:26:54.496Z,87.52
2018-07-08T00:27:54.430Z,87.90
2018-07-08T00:28:54.345Z,87.47
2018-07-08T00:29:54.278Z,87.43
2018-07-08T00:30:54.198Z,87.43
2018-07-08T00:31:54.129Z,87.52
2018-07-08T00:32:54.048Z,87.18
2018-07-08T00:33:53.980Z,87.23
2018-07-08T00:34:53.898Z,87.23
2018-07-08T00:35:53.833Z,87.37
2018-07-08T00:36:53.749Z,87.43
2018-07-08T00:37:53.684Z,87.43
2018-07-08T00:38:53.601Z,87.23
2018-07-08T00:39:53.564Z,86.99
2018-07-08T00:40:53.452Z,87.23
2018-07-08T00:41:53.389Z,86.85
2018-07-08T00:42:53.305Z,87.27
2018-07-08T00:43:53.244Z,86.90
2018-07-08T00:44:53.156Z,87.14
2018-07-08T00:45:53.088Z,87.47
2018-07-08T00:46:53.005Z,87.76
2018-07-08T00:47:52.936Z,87.76
2018-07-08T00:48:52.864Z,87.76
2018-07-08T00:49:52.792Z,87.52
2018-07-08T00:50:52.708Z,87.14
2018-07-08T00:51:52.639Z,87.52
2018-07-08T00:52:52.557Z,87.47
2018-07-08T00:53:52.530Z,87.47
2018-07-08T00:54:52.407Z,87.23
2018-07-08T00:55:52.343Z,87.23
2018-07-08T00:56:52.259Z,86.85
2018-07-08T00:57:52.192Z,87.14
2018-07-08T00:58:52.112Z,86.85
2018-07-08T00:59:52.045Z,87.23
2018-07-08T01:00:51.963Z,86.66
2018-07-08T01:01:51.897Z,87.23
2018-07-08T01:02:51.816Z,87.52
2018-07-08T01:03:51.746Z,87.62
2018-07-08T01:04:51.668Z,87.62
2018-07-08T01:05:51.600Z,87.62
2018-07-08T01:06:51.518Z,86.57
2018-07-08T01:07:51.460Z,86.57
2018-07-08T01:08:51.427Z,86.90
2018-07-08T01:09:51.306Z,87.38
2018-07-08T01:10:51.219Z,88.43
2018-07-08T01:11:51.149Z,89.29
2018-07-08T01:12:51.070Z,89.29
2018-07-08T01:13:51.004Z,89.48
2018-07-08T01:14:50.927Z,89.77
2018-07-08T01:15:50.852Z,90.25
2018-07-08T01:16:50.769Z,90.16
2018-07-08T01:17:50.701Z,90.44
2018-07-08T01:18:50.622Z,89.87
2018-07-08T01:19:50.554Z,90.49
2018-07-08T01:20:50.468Z,90.11
2018-07-08T01:21:50.402Z,90.39
2018-07-08T01:22:50.323Z,90.68
2018-07-08T01:23:50.256Z,91.16
2018-07-08T01:24:50.176Z,90.97
2018-07-08T01:25:50.106Z,91.93
2018-07-08T01:26:50.025Z,91.35
2018-07-08T01:27:49.958Z,91.35
2018-07-08T01:28:49.873Z,91.54
2018-07-08T01:29:49.809Z,92.02
2018-07-08T01:30:49.721Z,92.50
2018-07-08T01:31:49.650Z,92.50
2018-07-08T01:32:49.575Z,92.97
2018-07-08T01:33:49.510Z,92.50
2018-07-08T01:34:49.425Z,92.79
2018-07-08T01:35:49.356Z,92.30
2018-07-08T01:36:49.275Z,92.50
2018-07-08T01:37:49.209Z,92.50
2018-07-08T01:38:49.124Z,91.74
2018-07-08T01:39:49.061Z,91.25
2018-07-08T01:40:48.975Z,91.74
2018-07-08T01:41:48.908Z,91.64
2018-07-08T01:42:48.824Z,91.25
2018-07-08T01:43:48.756Z,91.16
2018-07-08T01:44:48.674Z,90.73
2018-07-08T01:45:48.610Z,90.97
2018-07-08T01:46:48.525Z,89.68
2018-07-08T01:47:48.455Z,90.35
2018-07-08T01:48:48.375Z,90.54
2018-07-08T01:49:48.308Z,90.06
2018-07-08T01:50:48.223Z,89.97
2018-07-08T01:51:48.157Z,89.87
2018-07-08T01:52:48.074Z,90.92
2018-07-08T01:53:48.010Z,90.83
2018-07-08T01:54:47.926Z,90.92
2018-07-08T01:55:47.857Z,91.59
2018-07-08T01:56:47.779Z,92.36
2018-07-08T01:57:47.713Z,92.26
2018-07-08T01:58:47.625Z,92.93
2018-07-08T01:59:47.556Z,92.74
2018-07-08T02:00:47.472Z,92.16
2018-07-08T02:01:47.407Z,92.07
2018-07-08T02:02:47.321Z,91.69
2018-07-08T02:03:47.255Z,91.59
2018-07-08T02:04:47.175Z,91.30
2018-07-08T02:05:47.113Z,90.73
2018-07-08T02:06:47.019Z,90.49
2018-07-08T02:07:46.953Z,90.30
2018-07-08T02:08:46.876Z,90.11
2018-07-08T02:09:46.803Z,89.53
2018-07-08T02:10:46.721Z,89.15
2018-07-08T02:11:46.652Z,89.25
2018-07-08T02:12:46.569Z,89.63
2018-07-08T02:13:46.502Z,89.63
2018-07-08T02:14:46.420Z,89.25
2018-07-08T02:15:46.352Z,89.25
2018-07-08T02:16:46.273Z,89.06
2018-07-08T02:17:46.200Z,89.15
2018-07-08T02:18:46.121Z,88.87
2018-07-08T02:19:46.056Z,89.06
2018-07-08T02:20:45.972Z,88.82
2018-07-08T02:21:45.900Z,89.39
2018-07-08T02:22:45.822Z,88.73
2018-07-08T02:23:45.750Z,89.30
2018-07-08T02:24:45.670Z,89.20
2018-07-08T02:25:45.600Z,89.20
2018-07-08T02:26:45.521Z,89.39
2018-07-08T02:27:45.448Z,89.39
2018-07-08T02:28:45.371Z,89.30
2018-07-08T02:29:45.297Z,89.39
2018-07-08T02:30:45.215Z,89.30
2018-07-08T02:31:45.148Z,89.30
2018-07-08T02:32:45.073Z,89.30
2018-07-08T02:33:44.995Z,89.11
2018-07-08T02:34:44.915Z,89.01
2018-07-08T02:35:44.849Z,88.06
2018-07-08T02:36:44.766Z,88.25
2018-07-08T02:37:44.691Z,88.73
2018-07-08T02:38:44.619Z,88.73
2018-07-08T02:39:44.544Z,89.49
2018-07-08T02:40:44.460Z,89.49
2018-07-08T02:41:44.392Z,89.39
2018-07-08T02:42:44.309Z,89.59
2018-07-08T02:43:44.243Z,88.73
2018-07-08T02:44:44.161Z,89.01
2018-07-08T02:45:44.095Z,88.92
2018-07-08T02:46:44.004Z,88.78
2018-07-08T02:47:43.938Z,88.82
2018-07-08T02:48:43.860Z,89.16
2018-07-08T02:49:43.793Z,89.25
2018-07-08T02:50:43.712Z,89.35
2018-07-08T02:51:43.650Z,89.73
2018-07-08T02:52:43.562Z,90.11
2018-07-08T02:53:43.494Z,90.50
2018-07-08T02:54:43.408Z,90.31
2018-07-08T02:55:43.337Z,90.02
2018-07-08T02:56:43.263Z,90.50
2018-07-08T02:57:43.182Z,90.69
2018-07-08T02:58:43.105Z,90.88
2018-07-08T02:59:43.036Z,90.88
2018-07-08T03:00:42.951Z,90.88
2018-07-08T03:01:42.887Z,91.07
2018-07-08T03:02:42.805Z,91.16
2018-07-08T03:03:42.735Z,90.69
2018-07-08T03:04:42.650Z,90.88
2018-07-08T03:05:42.581Z,90.69
2018-07-08T03:06:42.499Z,90.88
2018-07-08T03:07:42.427Z,90.97
2018-07-08T03:08:42.344Z,90.45
2018-07-08T03:09:42.279Z,90.73
2018-07-08T03:10:42.195Z,90.50
2018-07-08T03:11:42.133Z,90.50
2018-07-08T03:12:42.051Z,90.35
2018-07-08T03:13:41.978Z,89.97
2018-07-08T03:14:41.893Z,90.06
2018-07-08T03:15:41.828Z,90.16
2018-07-08T03:16:41.741Z,90.35
2018-07-08T03:17:41.673Z,90.16
2018-07-08T03:18:41.590Z,89.78
2018-07-08T03:19:41.521Z,89.59
2018-07-08T03:20:41.445Z,89.59
2018-07-08T03:21:41.370Z,89.73
2018-07-08T03:22:41.291Z,89.83
2018-07-08T03:23:41.219Z,90.02
2018-07-08T03:24:41.135Z,90.88
2018-07-08T03:25:41.070Z,91.07
2018-07-08T03:26:40.985Z,91.55
2018-07-08T03:27:40.915Z,91.50
2018-07-08T03:28:40.833Z,91.98
2018-07-08T03:29:40.765Z,92.55
2018-07-08T03:30:40.682Z,92.46
2018-07-08T03:31:40.616Z,92.36
2018-07-08T03:32:40.531Z,92.36
2018-07-08T03:33:40.455Z,92.36
2018-07-08T03:34:40.380Z,92.46
2018-07-08T03:35:40.311Z,92.26
2018-07-08T03:36:40.226Z,91.88
2018-07-08T03:37:40.163Z,92.07
2018-07-08T03:38:40.075Z,92.12
2018-07-08T03:39:40.005Z,92.07
2018-07-08T03:40:39.925Z,92.36
2018-07-08T03:41:39.860Z,91.69
2018-07-08T03:42:39.777Z,92.46
2018-07-08T03:43:39.703Z,92.07
2018-07-08T03:44:39.622Z,92.65
2018-07-08T03:45:39.559Z,92.12
2018-07-08T03:46:39.467Z,92.55
2018-07-08T03:47:39.401Z,92.65
2018-07-08T03:48:39.316Z,92.65
2018-07-08T03:49:39.253Z,92.88
2018-07-08T03:50:39.168Z,92.65
2018-07-08T03:51:39.106Z,92.55
2018-07-08T03:52:39.016Z,93.12
2018-07-08T03:53:38.946Z,93.02
2018-07-08T03:54:38.876Z,93.12
2018-07-08T03:55:38.786Z,93.12
2018-07-08T03:56:38.718Z,93.51
2018-07-08T03:57:38.635Z,93.70
2018-07-08T03:58:38.563Z,93.51
2018-07-08T03:59:38.480Z,93.70
2018-07-08T04:00:38.415Z,93.98
2018-07-08T04:01:38.334Z,94.27
2018-07-08T04:02:38.268Z,94.27
2018-07-08T04:03:38.177Z,94.27
2018-07-08T04:04:38.109Z,93.98
2018-07-08T04:05:38.026Z,94.65
2018-07-08T04:06:37.958Z,94.56
2018-07-08T04:07:37.876Z,94.74
2018-07-08T04:08:37.808Z,94.79
2018-07-08T04:09:37.729Z,94.89
2018-07-08T04:10:37.656Z,94.22
2018-07-08T04:11:37.571Z,94.12
2018-07-08T04:12:37.503Z,94.22
2018-07-08T04:13:37.421Z,94.03
2018-07-08T04:14:37.350Z,94.03
2018-07-08T04:15:37.268Z,94.98
2018-07-08T04:16:37.200Z,94.41
2018-07-08T04:17:37.123Z,94.79
2018-07-08T04:18:37.057Z,95.17
2018-07-08T04:19:36.963Z,95.08
2018-07-08T04:20:36.896Z,94.79
2018-07-08T04:21:36.809Z,94.31
2018-07-08T04:22:36.746Z,94.51
2018-07-08T04:23:36.666Z,94.98
2018-07-08T04:24:36.590Z,94.22
2018-07-08T04:25:36.508Z,94.31
2018-07-08T04:26:36.439Z,93.88
2018-07-08T04:27:36.361Z,94.03
2018-07-08T04:28:36.287Z,94.07
2018-07-08T04:29:36.206Z,94.07
2018-07-08T04:30:36.139Z,94.07
2018-07-08T04:31:36.054Z,93.79
2018-07-08T04:32:35.983Z,93.70
2018-07-08T04:33:35.902Z,93.70
2018-07-08T04:34:35.834Z,93.88
2018-07-08T04:35:35.751Z,93.88
2018-07-08T04:36:35.687Z,93.88
2018-07-08T04:37:35.597Z,94.27
2018-07-08T04:38:35.540Z,94.27
2018-07-08T04:39:35.443Z,94.84
2018-07-08T04:40:35.381Z,95.03
2018-07-08T04:41:35.291Z,94.93
2018-07-08T04:42:35.266Z,95.03
2018-07-08T04:43:35.140Z,95.12
2018-07-08T04:44:35.074Z,95.17
2018-07-08T04:45:34.990Z,95.07
2018-07-08T04:46:34.924Z,94.98
2018-07-08T04:47:34.834Z,94.89
2018-07-08T04:48:34.772Z,94.79
2018-07-08T04:49:34.688Z,94.79
2018-07-08T04:50:34.616Z,94.60
2018-07-08T04:51:34.539Z,94.70
2018-07-08T04:52:34.467Z,95.07
2018-07-08T04:53:34.416Z,94.02
2018-07-08T04:54:34.321Z,93.93
2018-07-08T04:55:34.232Z,94.51
2018-07-08T04:56:34.167Z,94.79
2018-07-08T04:57:34.087Z,94.41
2018-07-08T04:58:34.017Z,94.02
2018-07-08T04:59:33.933Z,93.74
2018-07-08T05:00:33.858Z,93.74
2018-07-08T05:01:33.780Z,94.12
2018-07-08T05:02:33.714Z,94.60
2018-07-08T05:03:33.627Z,95.75
2018-07-08T05:04:33.556Z,96.32
2018-07-08T05:05:33.478Z,96.70
2018-07-08T05:06:33.462Z,96.99
2018-07-08T05:07:33.328Z,96.51
2018-07-08T05:08:33.256Z,96.70
2018-07-08T05:09:33.175Z,96.61
2018-07-08T05:10:33.110Z,96.70
2018-07-08T05:11:33.022Z,96.61
2018-07-08T05:12:32.960Z,96.89
2018-07-08T05:13:32.875Z,96.80
2018-07-08T05:14:32.810Z,96.37
2018-07-08T05:15:32.719Z,96.94
2018-07-08T05:16:32.656Z,97.33
2018-07-08T05:17:32.575Z,97.04
2018-07-08T05:18:32.503Z,96.84
2018-07-08T05:19:32.418Z,96.75
2018-07-08T05:20:32.432Z,96.27
2018-07-08T05:21:32.270Z,96.75
2018-07-08T05:22:32.204Z,97.23
2018-07-08T05:23:32.117Z,97.42
2018-07-08T05:24:32.052Z,97.90
2018-07-08T05:25:32.448Z,98.09
2018-07-08T05:26:31.901Z,97.71
2018-07-08T05:27:31.816Z,97.99
2018-07-08T05:28:31.749Z,98.09
2018-07-08T05:29:31.666Z,97.90
2018-07-08T05:30:31.596Z,97.61
2018-07-08T05:31:31.523Z,97.13
2018-07-08T05:32:31.454Z,97.13
2018-07-08T05:33:31.364Z,97.37
2018-07-08T05:34:31.301Z,97.37
2018-07-08T05:35:31.213Z,96.80
2018-07-08T05:36:31.144Z,96.42
2018-07-08T05:37:31.063Z,95.75
2018-07-08T05:38:30.986Z,95.84
2018-07-08T05:39:30.923Z,95.94
2018-07-08T05:40:30.835Z,95.94
2018-07-08T05:41:30.840Z,95.46
2018-07-08T05:42:30.684Z,95.17
2018-07-08T05:43:30.640Z,94.12
2018-07-08T05:44:30.533Z,94.41
2018-07-08T05:45:30.552Z,94.89
2018-07-08T05:46:30.386Z,95.03
2018-07-08T05:47:30.363Z,95.17
2018-07-08T05:48:30.234Z,95.12
2018-07-08T05:49:30.270Z,95.89
2018-07-08T05:50:30.147Z,95.22
2018-07-08T05:51:30.081Z,95.41
2018-07-08T05:52:29.934Z,94.74
2018-07-08T05:53:29.996Z,94.07
2018-07-08T05:54:29.784Z,93.88
2018-07-08T05:55:29.716Z,93.40
2018-07-08T05:56:29.635Z,92.73
2018-07-08T05:57:29.612Z,92.78
2018-07-08T05:58:29.486Z,91.53
2018-07-08T05:59:29.520Z,89.72
2018-07-08T06:00:29.340Z,87.41
2018-07-08T06:01:29.328Z,87.32
2018-07-08T06:02:29.183Z,86.17
2018-07-08T06:03:29.151Z,84.64
2018-07-08T06:04:29.057Z,84.16
2018-07-08T06:05:29.048Z,84.45
2018-07-08T06:06:28.888Z,83.39
2018-07-08T06:07:28.903Z,82.57
2018-07-08T06:08:28.737Z,82.29
2018-07-08T06:09:28.773Z,82.09
2018-07-08T06:10:28.587Z,82.19
2018-07-08T06:11:28.684Z,82.19
2018-07-08T06:12:28.434Z,80.56
2018-07-08T06:13:28.491Z,80.18
2018-07-08T06:14:28.290Z,81.23
2018-07-08T06:15:28.369Z,80.37
2018-07-08T06:16:28.137Z,80.47
2018-07-08T06:17:28.213Z,80.60
2018-07-08T06:18:27.993Z,80.51
2018-07-08T06:19:28.023Z,80.41
2018-07-08T06:20:27.837Z,80.70
2018-07-08T06:21:27.831Z,80.03
2018-07-08T06:22:27.691Z,78.97
2018-07-08T06:23:27.641Z,78.40
2018-07-08T06:24:27.541Z,77.73
2018-07-08T06:25:27.553Z,77.92
2018-07-08T06:26:27.395Z,77.73
2018-07-08T06:27:27.361Z,78.25
2018-07-08T06:28:27.244Z,78.25
2018-07-08T06:29:27.272Z,78.44
2018-07-08T06:30:27.095Z,79.11
2018-07-08T06:31:27.023Z,79.01
2018-07-08T06:32:26.946Z,79.11
2018-07-08T06:33:26.994Z,79.59
2018-07-08T06:34:26.801Z,81.31
2018-07-08T06:35:26.908Z,80.35
2018-07-08T06:36:26.656Z,80.16
2018-07-08T06:37:26.711Z,80.35
2018-07-08T06:38:26.505Z,79.97
2018-07-08T06:39:26.523Z,79.39
2018-07-08T06:40:26.354Z,79.78
2018-07-08T06:41:26.433Z,77.61
2018-07-08T06:42:26.205Z,77.51
2018-07-08T06:43:26.241Z,77.13
2018-07-08T06:44:26.057Z,76.84
2018-07-08T06:45:26.185Z,77.71
2018-07-08T06:46:25.911Z,77.13
2018-07-08T06:47:25.964Z,75.98
2018-07-08T06:48:25.762Z,75.31
2018-07-08T06:49:25.875Z,74.44
2018-07-08T06:50:25.617Z,75.50
2018-07-08T06:51:25.686Z,75.40
2018-07-08T06:52:25.466Z,75.73
2018-07-08T06:53:25.402Z,74.68
2018-07-08T06:54:25.520Z,74.58
2018-07-08T06:55:25.246Z,73.72
2018-07-08T06:56:25.310Z,74.01
2018-07-08T06:57:25.101Z,74.29
2018-07-08T06:58:25.218Z,74.77
2018-07-08T06:59:24.959Z,75.15
2018-07-08T07:00:25.030Z,73.85
2018-07-08T07:01:24.804Z,74.04
2018-07-08T07:02:24.839Z,73.37
2018-07-08T07:03:24.658Z,73.08
2018-07-08T07:04:24.752Z,72.99
2018-07-08T07:05:24.511Z,72.60
2018-07-08T07:06:24.559Z,72.41
2018-07-08T07:07:24.364Z,72.06
2018-07-08T07:08:24.470Z,72.44
2018-07-08T07:09:24.218Z,72.73
2018-07-08T07:10:24.274Z,73.50
2018-07-08T07:11:24.072Z,72.16
2018-07-08T07:12:24.190Z,71.00
2018-07-08T07:13:23.927Z,70.43
2018-07-08T07:14:23.997Z,70.33
2018-07-08T07:15:23.785Z,70.14
2018-07-08T07:16:23.811Z,70.04
2018-07-08T07:17:23.670Z,69.95
2018-07-08T07:18:23.718Z,70.33
2018-07-08T07:19:23.486Z,70.04
2018-07-08T07:20:23.529Z,69.56
2018-07-08T07:21:23.345Z,69.37
2018-07-08T07:22:23.436Z,69.27
2018-07-08T07:23:23.194Z,69.02
2018-07-08T07:24:23.257Z,69.12
2018-07-08T07:25:23.053Z,68.25
2018-07-08T07:26:23.161Z,67.48
2018-07-08T07:27:22.904Z,66.81
2018-07-08T07:28:22.899Z,66.65
2018-07-08T07:29:22.755Z,67.03
2018-07-08T07:30:22.881Z,66.74
2018-07-08T07:31:22.612Z,66.07
2018-07-08T07:32:22.541Z,66.17
2018-07-08T07:33:22.467Z,65.24
2018-07-08T07:34:22.497Z,63.89
2018-07-08T07:35:22.428Z,63.99
2018-07-08T07:36:23.437Z,63.60
2018-07-08T07:37:22.750Z,63.22
2018-07-08T07:38:22.320Z,64.18
2018-07-08T07:39:22.034Z,64.56
2018-07-08T07:40:22.132Z,64.28
2018-07-08T07:41:21.888Z,64.47
2018-07-08T07:42:21.941Z,64.56
2018-07-08T07:43:21.743Z,63.12
2018-07-08T07:44:21.755Z,63.22
2018-07-08T07:45:21.608Z,63.15
2018-07-08T07:46:21.663Z,63.44
2018-07-08T07:47:21.458Z,63.25
2018-07-08T07:48:21.572Z,63.34
2018-07-08T07:49:21.312Z,64.79
2018-07-08T07:50:21.388Z,66.07
2018-07-08T07:51:21.177Z,66.17
2018-07-08T07:52:21.105Z,65.78
2018-07-08T07:53:21.026Z,66.01
2018-07-08T07:54:20.961Z,67.94
2018-07-08T07:55:21.009Z,64.76
2018-07-08T07:56:20.810Z,63.02
2018-07-08T07:57:20.917Z,61.68
2018-07-08T07:58:20.669Z,61.99
2018-07-08T07:59:20.602Z,65.14
2018-07-08T08:00:20.742Z,63.54
2018-07-08T08:01:20.454Z,63.73
2018-07-08T08:02:20.384Z,64.40
2018-07-08T08:03:20.451Z,62.41
2018-07-08T08:04:20.240Z,62.12
2018-07-08T08:05:20.363Z,60.19
2018-07-08T08:06:20.096Z,60.38
2018-07-08T08:07:20.032Z,61.64
2018-07-08T08:08:20.078Z,60.77
2018-07-08T08:09:19.885Z,63.47
2018-07-08T08:10:19.819Z,64.15
2018-07-08T08:11:19.891Z,62.54
2018-07-08T08:12:19.672Z,60.89
2018-07-08T08:13:19.804Z,60.71
2018-07-08T08:14:19.538Z,60.41
2018-07-08T08:15:19.616Z,60.80
2018-07-08T08:16:19.395Z,60.61
2018-07-08T08:17:19.522Z,61.31
2018-07-08T08:18:19.253Z,60.89
2018-07-08T08:19:19.182Z,60.54
2018-07-08T08:20:19.112Z,62.47
2018-07-08T08:21:19.135Z,59.86
2018-07-08T08:22:18.970Z,59.28
2018-07-08T08:23:19.053Z,58.22
2018-07-08T08:24:18.833Z,57.19
2018-07-08T08:25:18.964Z,55.65
2018-07-08T08:26:18.696Z,57.29
2018-07-08T08:27:18.775Z,56.90
2018-07-08T08:28:18.554Z,56.90
2018-07-08T08:29:18.482Z,56.32
2018-07-08T08:30:18.414Z,55.35
2018-07-08T08:31:18.503Z,57.31
2018-07-08T08:32:18.274Z,55.47
2018-07-08T08:33:18.407Z,55.09
2018-07-08T08:34:18.137Z,57.21
2018-07-08T08:35:18.071Z,57.31
2018-07-08T08:36:17.996Z,56.05
2018-07-08T08:37:18.023Z,56.45
2018-07-08T08:38:17.939Z,57.12
2018-07-08T08:39:17.833Z,57.51
2018-07-08T08:40:17.749Z,56.73
2018-07-08T08:41:17.747Z,57.21
2018-07-08T08:42:17.581Z,54.05
2018-07-08T08:43:17.553Z,53.38
2018-07-08T08:44:17.444Z,53.74
2018-07-08T08:45:17.463Z,51.81
2018-07-08T08:46:17.312Z,52.09
2018-07-08T08:47:17.272Z,51.51
2018-07-08T08:48:17.172Z,52.00
2018-07-08T08:49:17.184Z,54.22
2018-07-08T08:50:17.031Z,55.67
2018-07-08T08:51:16.993Z,57.12
2018-07-08T08:52:16.892Z,55.41
2018-07-08T08:53:16.904Z,55.11
2018-07-08T08:54:16.755Z,54.35
2018-07-08T08:55:16.715Z,55.51
2018-07-08T08:56:16.618Z,55.31
2018-07-08T08:57:16.626Z,52.99
2018-07-08T08:58:16.540Z,54.57
2018-07-08T08:59:16.433Z,54.57
2018-07-08T09:00:16.350Z,52.53
2018-07-08T09:01:16.275Z,50.60
2018-07-08T09:02:16.250Z,49.92
2018-07-08T09:03:16.136Z,51.28
2018-07-08T09:04:16.172Z,52.92
2018-07-08T09:05:16.001Z,52.24
2018-07-08T09:06:15.968Z,50.52
2018-07-08T09:07:15.865Z,52.95
2018-07-08T09:08:15.880Z,50.33
2018-07-08T09:09:15.729Z,48.79
2018-07-08T09:10:15.661Z,50.72
2018-07-08T09:11:15.697Z,51.01
2018-07-08T09:12:15.525Z,53.33
2018-07-08T09:13:15.456Z,52.27
2018-07-08T09:14:15.409Z,50.43
2018-07-08T09:15:15.320Z,54.43
2018-07-08T09:16:15.323Z,55.78
2018-07-08T09:17:15.238Z,53.09
2018-07-08T09:18:15.233Z,52.12
2018-07-08T09:19:15.049Z,52.20
2018-07-08T09:20:14.983Z,53.87
2018-07-08T09:21:14.915Z,51.35
2018-07-08T09:22:14.950Z,49.41
2018-07-08T09:23:14.782Z,48.93
2018-07-08T09:24:14.762Z,46.99
2018-07-08T09:25:14.645Z,46.70
2018-07-08T09:26:14.676Z,46.89
2018-07-08T09:27:14.509Z,47.96
2018-07-08T09:28:14.485Z,46.22
2018-07-08T09:29:14.408Z,45.64
2018-07-08T09:30:14.310Z,45.25
2018-07-08T09:31:14.299Z,46.70
2018-07-08T09:32:14.173Z,46.51
2018-07-08T09:33:14.210Z,46.31
2018-07-08T09:34:14.040Z,46.12
2018-07-08T09:35:14.016Z,45.73
2018-07-08T09:36:13.903Z,46.02
2018-07-08T09:37:13.837Z,47.96
2018-07-08T09:38:13.769Z,48.66
2018-07-08T09:39:13.909Z,48.76
2018-07-08T09:40:13.636Z,47.40
2018-07-08T09:41:13.652Z,47.30
2018-07-08T09:42:13.502Z,45.85
2018-07-08T09:43:13.461Z,45.07
2018-07-08T09:44:13.368Z,44.49
2018-07-08T09:45:13.373Z,43.82
2018-07-08T09:46:13.233Z,44.10
2018-07-08T09:47:13.169Z,43.72
2018-07-08T09:48:13.098Z,43.72
2018-07-08T09:49:13.092Z,44.01
2018-07-08T09:50:12.965Z,45.65
2018-07-08T09:51:13.004Z,45.07
2018-07-08T09:52:12.828Z,44.88
2018-07-08T09:53:12.814Z,45.44
2018-07-08T09:54:12.702Z,46.33
2018-07-08T09:55:12.727Z,49.44
2018-07-08T09:56:12.569Z,45.56
2018-07-08T09:57:12.535Z,44.98
2018-07-08T09:58:12.438Z,44.88
2018-07-08T09:59:12.375Z,44.88
2018-07-08T10:00:12.300Z,45.65
2018-07-08T10:01:12.382Z,47.03
2018-07-08T10:02:12.169Z,45.58
2018-07-08T10:03:12.164Z,44.71
2018-07-08T10:04:12.031Z,48.59
2018-07-08T10:05:12.077Z,45.68
2018-07-08T10:06:11.899Z,46.55
2018-07-08T10:07:11.891Z,46.55
2018-07-08T10:08:11.762Z,46.28
2018-07-08T10:09:11.812Z,46.48
2018-07-08T10:10:11.631Z,44.92
2018-07-08T10:11:11.607Z,44.73
2018-07-08T10:12:11.504Z,43.57
2018-07-08T10:13:11.516Z,44.05
2018-07-08T10:14:11.477Z,43.76
2018-07-08T10:15:11.328Z,45.70
2018-07-08T10:16:11.234Z,47.64
2018-07-08T10:17:11.240Z,50.36
2018-07-08T10:18:11.103Z,49.19
2018-07-08T10:19:11.152Z,48.25
2018-07-08T10:20:11.004Z,46.31
2018-07-08T10:21:10.959Z,47.08
2018-07-08T10:22:10.837Z,44.95
2018-07-08T10:23:10.870Z,44.85
2018-07-08T10:24:10.703Z,44.85
2018-07-08T10:25:10.687Z,46.60
2018-07-08T10:26:10.574Z,44.07
2018-07-08T10:27:10.504Z,43.49
2018-07-08T10:28:10.438Z,44.27
2018-07-08T10:29:10.401Z,45.53
2018-07-08T10:30:10.307Z,46.72
2018-07-08T10:31:10.313Z,46.60
2018-07-08T10:32:10.174Z,46.41
2018-07-08T10:33:10.224Z,46.50
2018-07-08T10:34:10.046Z,46.98
2018-07-08T10:35:10.032Z,48.75
2018-07-08T10:36:09.911Z,44.58
2018-07-08T10:37:09.942Z,43.20
2018-07-08T10:38:09.836Z,43.41
2018-07-08T10:39:09.755Z,45.45
2018-07-08T10:40:09.647Z,46.91
2018-07-08T10:41:09.664Z,43.80
2018-07-08T10:42:09.516Z,43.12
2018-07-08T10:43:09.472Z,43.22
2018-07-08T10:44:09.387Z,42.74
2018-07-08T10:45:09.389Z,42.36
2018-07-08T10:46:09.260Z,43.63
2018-07-08T10:47:09.299Z,41.98
2018-07-08T10:48:09.122Z,45.48
2018-07-08T10:49:09.104Z,44.87
2018-07-08T10:50:09.063Z,44.02
2018-07-08T10:51:09.017Z,44.89
2018-07-08T10:52:08.859Z,48.20
2018-07-08T10:53:08.827Z,42.85
2018-07-08T10:54:08.730Z,41.01
2018-07-08T10:55:08.737Z,41.20
2018-07-08T10:56:08.606Z,43.63
2018-07-08T10:57:08.650Z,44.12
2018-07-08T10:58:08.468Z,45.18
2018-07-08T10:59:08.458Z,43.16
2018-07-08T11:00:08.336Z,42.66
2018-07-08T11:01:08.369Z,43.54
2018-07-08T11:02:08.206Z,43.73
2018-07-08T11:03:08.141Z,42.78
2018-07-08T11:04:08.185Z,46.55
2018-07-08T11:05:08.015Z,44.62
2018-07-08T11:06:08.005Z,45.40
2018-07-08T11:07:07.879Z,43.46
2018-07-08T11:08:07.814Z,41.90
2018-07-08T11:09:07.810Z,44.14
2018-07-08T11:10:07.687Z,44.04
2018-07-08T11:11:07.722Z,44.82
2018-07-08T11:12:07.555Z,46.28
2018-07-08T11:13:07.530Z,45.69
2018-07-08T11:14:07.423Z,42.39
2018-07-08T11:15:07.440Z,41.42
2018-07-08T11:16:07.294Z,39.86
2018-07-08T11:17:07.249Z,42.00
2018-07-08T11:18:07.210Z,41.80
2018-07-08T11:19:07.161Z,43.16
2018-07-08T11:20:07.039Z,40.73
2018-07-08T11:21:06.978Z,38.01
2018-07-08T11:22:06.910Z,38.40
2018-07-08T11:23:06.887Z,38.87
2018-07-08T11:24:06.778Z,37.32
2018-07-08T11:25:06.792Z,40.72
2018-07-08T11:26:06.649Z,42.76
2018-07-08T11:27:06.604Z,44.41
2018-07-08T11:28:06.514Z,39.65
2018-07-08T11:29:06.520Z,38.19
2018-07-08T11:30:06.384Z,40.42
2018-07-08T11:31:06.428Z,41.32
2018-07-08T11:32:06.257Z,44.92
2018-07-08T11:33:06.236Z,42.58
2018-07-08T11:34:06.128Z,39.86
2018-07-08T11:35:06.147Z,38.11
2018-07-08T11:36:05.995Z,36.07
2018-07-08T11:37:06.062Z,36.07
2018-07-08T11:38:05.863Z,37.24
2018-07-08T11:39:05.868Z,41.03
2018-07-08T11:40:05.735Z,40.06
2018-07-08T11:41:05.778Z,40.73
2018-07-08T11:42:05.606Z,37.43
2018-07-08T11:43:05.588Z,37.14
2018-07-08T11:44:05.478Z,38.11
2018-07-08T11:45:05.575Z,36.16
2018-07-08T11:46:05.347Z,36.16
2018-07-08T11:47:05.307Z,35.96
2018-07-08T11:48:05.216Z,36.34
2018-07-08T11:49:05.221Z,38.31
2018-07-08T11:50:05.092Z,38.77
2018-07-08T11:51:05.134Z,38.70
2018-07-08T11:52:04.952Z,38.89
2018-07-08T11:53:04.941Z,38.19
2018-07-08T11:54:04.832Z,34.59
2018-07-08T11:55:04.766Z,38.57
2018-07-08T11:56:04.763Z,34.77
2018-07-08T11:57:04.634Z,37.10
2018-07-08T11:58:04.676Z,36.32
2018-07-08T11:59:04.503Z,33.80
2018-07-08T12:00:04.478Z,34.58
2018-07-08T12:01:04.372Z,36.61
2018-07-08T12:02:04.393Z,37.32
2018-07-08T12:03:04.244Z,39.26
2018-07-08T12:04:04.305Z,37.99
2018-07-08T12:05:04.127Z,39.47
2018-07-08T12:06:04.108Z,40.44
2018-07-08T12:07:03.984Z,39.47
2018-07-08T12:08:04.023Z,39.18
2018-07-08T12:09:03.858Z,38.60
2018-07-08T12:10:03.833Z,37.14
2018-07-08T12:11:03.726Z,34.24
2018-07-08T12:12:03.744Z,34.32
2018-07-08T12:13:03.597Z,38.11
2018-07-08T12:14:03.654Z,42.41
2018-07-08T12:15:03.469Z,38.31
2018-07-08T12:16:03.464Z,35.10
2018-07-08T12:17:03.337Z,33.34
2018-07-08T12:18:03.374Z,30.14
2018-07-08T12:19:03.208Z,31.30
2018-07-08T12:20:03.182Z,31.60
2018-07-08T12:21:03.079Z,32.18
2018-07-08T12:22:03.092Z,30.04
2018-07-08T12:23:02.948Z,31.79
2018-07-08T12:24:02.885Z,31.21
2018-07-08T12:25:02.912Z,31.88
2018-07-08T12:26:02.756Z,34.80
2018-07-08T12:27:02.720Z,34.42
2018-07-08T12:28:02.628Z,35.39
2018-07-08T12:29:02.631Z,37.14
2018-07-08T12:30:02.496Z,38.32
2018-07-08T12:31:02.541Z,38.81
2018-07-08T12:32:02.367Z,37.06
2018-07-08T12:33:02.356Z,36.49
2018-07-08T12:34:02.238Z,34.94
2018-07-08T12:35:02.260Z,32.59
2018-07-08T12:36:02.109Z,33.96
2018-07-08T12:37:02.071Z,37.18
2018-07-08T12:38:01.981Z,36.49
2018-07-08T12:39:01.984Z,39.61
2018-07-08T12:40:01.849Z,33.96
2018-07-08T12:41:01.901Z,33.38
2018-07-08T12:42:01.721Z,32.40
2018-07-08T12:43:01.705Z,32.10
2018-07-08T12:44:01.635Z,32.89
2018-07-08T12:45:01.623Z,32.40
2018-07-08T12:46:01.468Z,31.51
2018-07-08T12:47:01.427Z,33.96
2018-07-08T12:48:01.333Z,32.49
2018-07-08T12:49:01.338Z,31.41
2018-07-08T12:50:01.206Z,32.68
2018-07-08T12:51:01.140Z,31.63
2018-07-08T12:52:01.077Z,32.29